CAMANCHE RESERVOIR (CMN)

Elevation: 236' · MOKELUMNE R basin · Operator: East Bay Municipal Utility District

Provisional data, subject to change.
Query executed Wednesday at 8:19:46

Select a sensor type for a plot of data.
Note: Reservoir Flows are daily averages.

Earlier

Date RES ELE    STORAGE    RES CHG    TOC STO    ABV TOC    OUTFLOW    INFLOW   
 FEET   AF   AF   AF   AF   CFS   CFS  
11/08/2016 215.72 281560 481 287100 -5540 536 750
11/09/2016 215.70 281440 -18 287100 -5660 583 518
11/10/2016 215.72 281560 170 287100 -5540 478 520
11/11/2016 215.72 281560 129 287100 -5540 450 517
11/12/2016 215.75 281750 -8 287100 -5350 449 515
11/13/2016 215.62 280940 -748 287100 -6160 409 11
11/14/2016 215.67 281250 292 287100 -5850 350 536
11/15/2016 215.65 281130 -75 287100 -5970 573 514
11/16/2016 215.57 280630 -464 287100 -6470 726 516
11/17/2016 215.59 280760 96 287100 -6340 446 518
11/18/2016 215.64 281060 283 287100 -6040 341 517
11/19/2016 215.69 281380 477 287100 -5720 340 512
11/20/2016 215.68 281310 -152 287100 -5790 341 11
11/21/2016 215.66 281190 -85 287100 -5910 557 519
11/22/2016 215.60 280820 -366 287100 -6280 749 514
11/23/2016 215.61 280877 57 -- -- 478 533
11/24/2016 215.66 281190 295 287100 -5910 341 517
11/25/2016 215.69 281380 280 287100 -5720 340 500
11/26/2016 215.80 282060 529 287100 -5040 341 520
11/27/2016 215.71 281500 -469 287100 -5600 341 11
11/28/2016 215.71 281500 50 287100 -5600 340 404
11/29/2016 215.67 281250 -230 287100 -5850 556 414
11/30/2016 215.43 279760 -1492 287100 -7340 753 11
12/01/2016 215.40 279580 -183 287100 -7520 486 407
12/02/2016 215.29 278900 -691 287100 -8200 340 11
12/03/2016 215.42 279700 869 287100 -7400 340 774
12/04/2016 215.38 279450 -234 287100 -7650 340 261
12/05/2016 215.53 280380 1042 287100 -6720 340 848
12/06/2016 215.64 281089 709 -- -- 543 869
12/07/2016 -- -- -- -- -- -- --

Later | Latest

Warning! This data is preliminary and subject to revision.

Show CMN Map | Plot CMN Data | 1 Month CMN Data | Real-Time CMN Data | CMN Info